createdAt,value
2022-08-05T00:01:29.275Z,100799.23
2022-08-05T00:06:42.104Z,100798.64
2022-08-05T00:11:55.544Z,100792.74
2022-08-05T00:17:03.077Z,100794.38
2022-08-05T00:22:11.450Z,100798.84
2022-08-05T00:27:17.839Z,100798.24
2022-08-05T00:32:25.756Z,100794.52
2022-08-05T00:37:51.158Z,100792.71
2022-08-05T00:43:00.138Z,100795.86
2022-08-05T00:48:07.173Z,100793.34
2022-08-05T00:54:01.456Z,100793.37
2022-08-05T00:58:39.605Z,100791.16
2022-08-05T01:03:49.990Z,100785.20
2022-08-05T01:08:56.013Z,100789.73
2022-08-05T01:14:10.890Z,100785.66
2022-08-05T01:20:01.683Z,100780.23
2022-08-05T01:25:53.426Z,100777.85
2022-08-05T01:31:09.990Z,100774.44
2022-08-05T01:36:21.098Z,100769.30
2022-08-05T01:41:37.593Z,100766.30
2022-08-05T01:46:46.620Z,100766.15
2022-08-05T01:51:58.268Z,100767.51
2022-08-05T01:58:13.860Z,100764.65
2022-08-05T02:02:34.165Z,100762.84
2022-08-05T02:07:59.866Z,100764.66
2022-08-05T02:13:16.276Z,100758.02
2022-08-05T02:18:34.208Z,100754.47
2022-08-05T02:23:46.440Z,100744.89
2022-08-05T02:28:56.095Z,100744.73
2022-08-05T02:34:09.255Z,100743.37
2022-08-05T02:39:21.467Z,100739.56
2022-08-05T02:44:28.858Z,100741.22
2022-08-05T02:49:40.424Z,100736.68
2022-08-05T02:54:50.686Z,100731.19
2022-08-05T02:59:59.484Z,100728.56
2022-08-05T03:05:08.705Z,100722.89
2022-08-05T03:10:22.127Z,100719.98
2022-08-05T03:15:30.530Z,100719.95
2022-08-05T03:20:42.611Z,100718.95
2022-08-05T03:26:04.951Z,100719.15
2022-08-05T03:31:55.845Z,100714.06
2022-08-05T03:36:47.586Z,100713.58
2022-08-05T03:41:58.546Z,100710.70
2022-08-05T03:47:04.690Z,100710.75
2022-08-05T03:52:38.507Z,100708.60
2022-08-05T03:57:47.920Z,100709.38
2022-08-05T04:02:59.243Z,100706.79
2022-08-05T04:08:14.722Z,100710.21
2022-08-05T04:13:50.336Z,100708.63
2022-08-05T04:18:58.094Z,100712.11
2022-08-05T04:24:08.866Z,100712.84
2022-08-05T04:29:15.350Z,100710.63
2022-08-05T04:34:33.611Z,100708.83
2022-08-05T04:39:40.607Z,100707.55
2022-08-05T04:44:46.412Z,100707.47
2022-08-05T04:50:02.839Z,100705.68
2022-08-05T04:55:17.700Z,100705.13
2022-08-05T05:00:44.193Z,100702.66
2022-08-05T05:06:40.556Z,100697.94
2022-08-05T05:11:22.814Z,100707.52
2022-08-05T05:16:47.946Z,100713.36
2022-08-05T05:21:56.329Z,100715.13
2022-08-05T05:27:02.729Z,100711.48
2022-08-05T05:32:12.451Z,100719.55
2022-08-05T05:37:21.624Z,100726.03
2022-08-05T05:42:43.110Z,100733.90
2022-08-05T05:48:08.071Z,100735.00
2022-08-05T05:53:21.376Z,100733.50
2022-08-05T05:58:32.090Z,100734.91
2022-08-05T06:03:54.192Z,100728.84
2022-08-05T06:09:07.599Z,100723.23
2022-08-05T06:14:13.855Z,100720.30
2022-08-05T06:19:34.100Z,100722.20
2022-08-05T06:24:48.117Z,100728.64
2022-08-05T06:30:04.425Z,100725.20
2022-08-05T06:35:21.662Z,100717.34
2022-08-05T06:40:32.638Z,100716.16
2022-08-05T06:46:03.444Z,100717.95
2022-08-05T06:51:09.644Z,100716.55
2022-08-05T06:56:26.751Z,100716.30
2022-08-05T07:01:33.114Z,100711.86
2022-08-05T07:06:39.260Z,100704.98
2022-08-05T07:11:51.477Z,100702.43
2022-08-05T07:17:58.404Z,100703.84
2022-08-05T07:22:30.159Z,100700.23
2022-08-05T07:27:56.299Z,100695.63
2022-08-05T07:33:05.536Z,100697.54
2022-08-05T07:38:32.533Z,100694.40
2022-08-05T07:43:41.072Z,100693.63
2022-08-05T07:49:02.152Z,100690.71
2022-08-05T07:54:12.634Z,100690.73
2022-08-05T07:59:21.945Z,100688.98
2022-08-05T08:04:38.381Z,100686.35
2022-08-05T08:09:44.372Z,100687.11
2022-08-05T08:14:50.382Z,100686.55
2022-08-05T08:20:23.059Z,100689.34
2022-08-05T08:25:26.952Z,100690.23
2022-08-05T08:30:49.822Z,100684.27
2022-08-05T08:36:18.457Z,100679.02
2022-08-05T08:41:26.317Z,100673.38
2022-08-05T08:46:51.744Z,100673.34
2022-08-05T08:52:13.647Z,100678.47
2022-08-05T08:57:48.195Z,100671.48
2022-08-05T09:02:56.746Z,100667.49
2022-08-05T09:08:05.593Z,100667.51
2022-08-05T09:13:17.062Z,100656.73
2022-08-05T09:18:23.139Z,100656.00
2022-08-05T09:23:37.498Z,100653.41
2022-08-05T09:28:49.827Z,100653.10
2022-08-05T09:34:01.109Z,100650.88
2022-08-05T09:39:17.959Z,100646.59
2022-08-05T09:44:37.372Z,100644.05
2022-08-05T09:50:01.473Z,100638.26
2022-08-05T09:55:56.318Z,100636.91
2022-08-05T10:00:36.732Z,100625.85
2022-08-05T10:05:44.739Z,100630.02
2022-08-05T10:10:54.830Z,100626.01
2022-08-05T10:16:01.013Z,100617.49
2022-08-05T10:21:15.781Z,100609.27
2022-08-05T10:26:24.260Z,100605.19
2022-08-05T10:32:54.909Z,100592.70
2022-08-05T10:37:06.264Z,100582.27
2022-08-05T10:42:18.779Z,100580.56
2022-08-05T10:47:56.119Z,100577.79
2022-08-05T10:53:34.637Z,100569.35
2022-08-05T10:59:11.488Z,100577.28
2022-08-05T11:04:21.832Z,100572.73
2022-08-05T11:09:39.349Z,100567.27
2022-08-05T11:15:11.750Z,100554.64
2022-08-05T11:20:41.642Z,100553.21
2022-08-05T11:26:04.312Z,100544.70
2022-08-05T11:31:57.639Z,100538.34
2022-08-05T11:38:29.209Z,100536.55
2022-08-05T11:42:37.680Z,100531.45
2022-08-05T11:47:48.903Z,100529.16
2022-08-05T11:52:58.207Z,100533.17
2022-08-05T11:58:08.315Z,100530.84
2022-08-05T12:03:29.328Z,100534.42
2022-08-05T12:08:50.963Z,100533.45
2022-08-05T12:13:59.495Z,100516.88
2022-08-05T12:20:17.008Z,100514.72
2022-08-05T12:24:49.340Z,100508.36
2022-08-05T12:30:04.290Z,100506.71
2022-08-05T12:35:11.379Z,100495.13
2022-08-05T12:40:28.730Z,100489.53
2022-08-05T12:45:42.660Z,100486.95
2022-08-05T12:52:11.051Z,100490.86
2022-08-05T12:56:50.885Z,100483.67
2022-08-05T13:02:07.593Z,100477.33
2022-08-05T13:07:17.264Z,100468.05
2022-08-05T13:12:28.378Z,100465.75
2022-08-05T13:17:41.423Z,100461.99
2022-08-05T13:22:50.790Z,100460.02
2022-08-05T13:27:57.626Z,100452.24
2022-08-05T13:33:03.502Z,100448.33
2022-08-05T13:38:10.206Z,100446.45
2022-08-05T13:43:44.466Z,100449.95
2022-08-05T13:48:57.826Z,100440.02
2022-08-05T13:54:12.666Z,100430.50
2022-08-05T13:59:24.293Z,100429.92
2022-08-05T14:04:52.809Z,100427.33
2022-08-05T14:09:59.383Z,100423.27
2022-08-05T14:16:07.404Z,100420.73
2022-08-05T14:20:36.097Z,100418.45
2022-08-05T14:25:45.158Z,100423.55
2022-08-05T14:30:51.967Z,100414.88
2022-08-05T14:35:59.739Z,100411.02
2022-08-05T14:41:08.279Z,100414.71
2022-08-05T14:46:14.292Z,100414.86
2022-08-05T14:51:21.044Z,100408.95
2022-08-05T14:56:27.558Z,100402.60
2022-08-05T15:01:49.060Z,100404.36
2022-08-05T15:06:57.047Z,100403.64
2022-08-05T15:12:03.880Z,100404.10
2022-08-05T15:17:47.439Z,100400.58
2022-08-05T15:22:37.048Z,100390.70
2022-08-05T15:27:51.874Z,100387.39
2022-08-05T15:33:00.863Z,100392.39
2022-08-05T15:38:34.522Z,100386.53
2022-08-05T15:43:45.452Z,100389.57
2022-08-05T15:48:58.006Z,100387.52
2022-08-05T15:54:08.415Z,100386.60
2022-08-05T15:59:21.872Z,100377.41
2022-08-05T16:04:28.406Z,100377.73
2022-08-05T16:09:34.363Z,100374.92
2022-08-05T16:14:42.846Z,100371.39
2022-08-05T16:20:05.692Z,100377.30
2022-08-05T16:25:15.194Z,100373.34
2022-08-05T16:30:26.060Z,100369.98
2022-08-05T16:35:43.168Z,100364.46
2022-08-05T16:40:55.226Z,100360.48
2022-08-05T16:46:24.466Z,100352.10
2022-08-05T16:51:42.607Z,100353.21
2022-08-05T16:56:57.352Z,100351.67
2022-08-05T17:02:04.186Z,100353.73
2022-08-05T17:07:11.453Z,100359.27
2022-08-05T17:12:18.026Z,100352.10
2022-08-05T17:17:42.047Z,100356.48
2022-08-05T17:22:55.151Z,100357.09
2022-08-05T17:28:01.743Z,100360.02
2022-08-05T17:33:08.001Z,100358.19
2022-08-05T17:38:14.825Z,100366.30
2022-08-05T17:43:50.651Z,100366.45
2022-08-05T17:48:49.744Z,100367.98
2022-08-05T17:53:58.126Z,100365.80
2022-08-05T17:59:04.093Z,100364.39
2022-08-05T18:04:11.755Z,100366.98
2022-08-05T18:09:18.053Z,100369.28
2022-08-05T18:14:26.541Z,100371.13
2022-08-05T18:19:33.800Z,100370.81
2022-08-05T18:24:40.466Z,100373.14
2022-08-05T18:29:52.031Z,100378.96
2022-08-05T18:35:00.284Z,100380.97
2022-08-05T18:41:50.447Z,100385.00
2022-08-05T18:45:41.578Z,100382.80
2022-08-05T18:52:05.715Z,100382.91
2022-08-05T18:56:34.098Z,100381.94
2022-08-05T19:01:47.595Z,100382.48
2022-08-05T19:07:00.236Z,100381.35
2022-08-05T19:12:07.763Z,100382.13
2022-08-05T19:17:17.839Z,100381.98
2022-08-05T19:22:27.521Z,100389.23
2022-08-05T19:27:33.751Z,100382.40
2022-08-05T19:32:40.088Z,100391.33
2022-08-05T19:38:04.765Z,100389.59
2022-08-05T19:44:04.707Z,100386.73
2022-08-05T19:48:38.827Z,100388.97
2022-08-05T19:54:03.380Z,100387.30
2022-08-05T19:59:51.312Z,100391.36
2022-08-05T20:05:00.142Z,100391.90
2022-08-05T20:10:14.009Z,100391.95
2022-08-05T20:15:52.638Z,100387.49
2022-08-05T20:20:56.796Z,100387.77
2022-08-05T20:26:02.841Z,100388.27
2022-08-05T20:31:08.914Z,100384.33
2022-08-05T20:36:16.402Z,100387.20
2022-08-05T20:41:27.373Z,100386.60
2022-08-05T20:46:49.561Z,100382.10
2022-08-05T20:51:57.627Z,100381.71
2022-08-05T20:57:04.044Z,100391.71
2022-08-05T21:02:10.865Z,100394.63
2022-08-05T21:07:17.030Z,100392.51
2022-08-05T21:12:26.046Z,100395.09
2022-08-05T21:17:33.469Z,100392.29
2022-08-05T21:22:42.313Z,100391.77
2022-08-05T21:27:48.335Z,100395.43
2022-08-05T21:32:58.666Z,100398.27
2022-08-05T21:38:04.535Z,100395.55
2022-08-05T21:43:17.888Z,100397.06
2022-08-05T21:48:32.422Z,100397.23
2022-08-05T21:53:39.811Z,100396.08
2022-08-05T21:58:57.024Z,100397.55
2022-08-05T22:04:04.096Z,100393.73
2022-08-05T22:09:14.636Z,100396.98
2022-08-05T22:14:35.028Z,100404.20
2022-08-05T22:20:02.501Z,100406.41
2022-08-05T22:26:10.085Z,100406.23
2022-08-05T22:31:23.698Z,100401.14
2022-08-05T22:36:37.073Z,100402.98
2022-08-05T22:42:09.721Z,100405.69
2022-08-05T22:47:11.161Z,100399.80
2022-08-05T22:52:30.170Z,100400.15
2022-08-05T22:57:38.574Z,100405.71
2022-08-05T23:02:46.947Z,100395.51
2022-08-05T23:07:54.182Z,100386.44
2022-08-05T23:13:01.340Z,100389.71
2022-08-05T23:18:11.685Z,100388.58
2022-08-05T23:23:22.022Z,100385.27
2022-08-05T23:28:28.817Z,100383.87
2022-08-05T23:34:05.657Z,100381.27
2022-08-05T23:39:01.088Z,100381.05
2022-08-05T23:44:08.862Z,100383.98
2022-08-05T23:49:16.433Z,100392.30
2022-08-05T23:54:29.854Z,100391.09
